sensor_id;sensor_type;location;lat;lon;timestamp;pressure;altitude;pressure_sealevel;temperature;humidity
75936;BME280;64614;32.062;34.834;2024-03-22T00:00:21;100770.69;;;24.29;43.68
75936;BME280;64614;32.062;34.834;2024-03-22T00:02:47;100793.00;;;24.45;43.87
75936;BME280;64614;32.062;34.834;2024-03-22T00:05:13;100790.25;;;24.45;43.66
75936;BME280;64614;32.062;34.834;2024-03-22T00:07:38;100769.88;;;24.37;43.51
75936;BME280;64614;32.062;34.834;2024-03-22T00:10:06;100776.84;;;24.52;43.33
75936;BME280;64614;32.062;34.834;2024-03-22T00:12:31;100771.19;;;24.49;43.23
75936;BME280;64614;32.062;34.834;2024-03-22T00:14:57;100772.81;;;24.50;43.50
75936;BME280;64614;32.062;34.834;2024-03-22T00:17:23;100745.84;;;24.34;43.34
75936;BME280;64614;32.062;34.834;2024-03-22T00:19:49;100766.19;;;24.51;43.31
75936;BME280;64614;32.062;34.834;2024-03-22T00:22:14;100785.09;;;24.61;43.19
75936;BME280;64614;32.062;34.834;2024-03-22T00:24:41;100755.38;;;24.46;43.28
75936;BME280;64614;32.062;34.834;2024-03-22T00:27:06;100764.56;;;24.50;43.23
75936;BME280;64614;32.062;34.834;2024-03-22T00:29:32;100772.34;;;24.56;43.28
75936;BME280;64614;32.062;34.834;2024-03-22T00:31:58;100753.09;;;24.48;43.16
75936;BME280;64614;32.062;34.834;2024-03-22T00:34:23;100773.13;;;24.57;43.43
75936;BME280;64614;32.062;34.834;2024-03-22T00:36:49;100778.00;;;24.60;43.25
75936;BME280;64614;32.062;34.834;2024-03-22T00:39:16;100764.44;;;24.55;43.06
75936;BME280;64614;32.062;34.834;2024-03-22T00:41:42;100772.50;;;24.60;43.19
75936;BME280;64614;32.062;34.834;2024-03-22T00:44:08;100775.56;;;24.59;43.10
75936;BME280;64614;32.062;34.834;2024-03-22T00:46:33;100742.63;;;24.41;43.40
75936;BME280;64614;32.062;34.834;2024-03-22T00:48:59;100741.63;;;24.37;43.07
75936;BME280;64614;32.062;34.834;2024-03-22T00:51:28;100762.97;;;24.58;43.11
75936;BME280;64614;32.062;34.834;2024-03-22T00:53:54;100773.13;;;24.57;43.03
75936;BME280;64614;32.062;34.834;2024-03-22T00:56:22;100761.19;;;24.53;42.95
75936;BME280;64614;32.062;34.834;2024-03-22T00:58:49;100745.03;;;24.43;42.91
75936;BME280;64614;32.062;34.834;2024-03-22T01:01:15;100758.59;;;24.48;43.04
75936;BME280;64614;32.062;34.834;2024-03-22T01:03:41;100743.41;;;24.41;43.07
75936;BME280;64614;32.062;34.834;2024-03-22T01:06:06;100745.66;;;24.39;43.00
75936;BME280;64614;32.062;34.834;2024-03-22T01:08:32;100761.03;;;24.49;42.96
75936;BME280;64614;32.062;34.834;2024-03-22T01:10:58;100759.56;;;24.52;43.13
75936;BME280;64614;32.062;34.834;2024-03-22T01:13:24;100739.69;;;24.37;43.00
75936;BME280;64614;32.062;34.834;2024-03-22T01:15:49;100730.81;;;24.40;43.14
75936;BME280;64614;32.062;34.834;2024-03-22T01:18:15;100752.97;;;24.53;43.14
75936;BME280;64614;32.062;34.834;2024-03-22T01:20:41;100747.78;;;24.51;43.09
75936;BME280;64614;32.062;34.834;2024-03-22T01:23:08;100753.75;;;24.53;43.20
75936;BME280;64614;32.062;34.834;2024-03-22T01:25:33;100746.97;;;24.51;43.06
75936;BME280;64614;32.062;34.834;2024-03-22T01:27:59;100748.25;;;24.53;43.13
75936;BME280;64614;32.062;34.834;2024-03-22T01:30:25;100743.09;;;24.52;43.15
75936;BME280;64614;32.062;34.834;2024-03-22T01:32:54;100741.66;;;24.46;43.22
75936;BME280;64614;32.062;34.834;2024-03-22T01:35:20;100731.81;;;24.45;43.12
75936;BME280;64614;32.062;34.834;2024-03-22T01:37:46;100758.94;;;24.55;43.06
75936;BME280;64614;32.062;34.834;2024-03-22T01:40:13;100743.44;;;24.50;43.33
75936;BME280;64614;32.062;34.834;2024-03-22T01:42:39;100720.16;;;24.30;43.32
75936;BME280;64614;32.062;34.834;2024-03-22T01:45:05;100717.09;;;24.32;42.95
75936;BME280;64614;32.062;34.834;2024-03-22T01:47:31;100725.16;;;24.37;43.08
75936;BME280;64614;32.062;34.834;2024-03-22T01:49:57;100735.81;;;24.38;43.38
75936;BME280;64614;32.062;34.834;2024-03-22T01:52:23;100746.81;;;24.47;43.35
75936;BME280;64614;32.062;34.834;2024-03-22T01:54:52;100755.69;;;24.44;42.93
75936;BME280;64614;32.062;34.834;2024-03-22T01:57:18;100765.69;;;24.49;42.95
75936;BME280;64614;32.062;34.834;2024-03-22T01:59:46;100748.75;;;24.38;43.32
75936;BME280;64614;32.062;34.834;2024-03-22T02:02:27;100775.56;;;24.50;43.20
75936;BME280;64614;32.062;34.834;2024-03-22T02:04:53;100754.22;;;24.29;43.41
75936;BME280;64614;32.062;34.834;2024-03-22T02:07:19;100744.53;;;24.23;43.35
75936;BME280;64614;32.062;34.834;2024-03-22T02:09:44;100741.13;;;24.08;43.57
75936;BME280;64614;32.062;34.834;2024-03-22T02:12:10;100773.91;;;24.31;43.68
75936;BME280;64614;32.062;34.834;2024-03-22T02:14:39;100779.75;;;24.30;43.55
75936;BME280;64614;32.062;34.834;2024-03-22T02:17:05;100745.78;;;24.08;43.63
75936;BME280;64614;32.062;34.834;2024-03-22T02:19:33;100737.41;;;24.04;43.50
75936;BME280;64614;32.062;34.834;2024-03-22T02:22:01;100775.72;;;24.27;43.72
75936;BME280;64614;32.062;34.834;2024-03-22T02:24:27;100761.00;;;24.14;43.97
75936;BME280;64614;32.062;34.834;2024-03-22T02:26:58;100788.31;;;24.28;43.68
75936;BME280;64614;32.062;34.834;2024-03-22T02:29:27;100783.59;;;24.29;43.78
75936;BME280;64614;32.062;34.834;2024-03-22T02:31:56;100736.44;;;24.00;43.80
75936;BME280;64614;32.062;34.834;2024-03-22T02:34:23;100758.56;;;24.13;43.68
75936;BME280;64614;32.062;34.834;2024-03-22T02:36:52;100770.69;;;24.20;43.54
75936;BME280;64614;32.062;34.834;2024-03-22T02:39:21;100773.63;;;24.33;43.77
75936;BME280;64614;32.062;34.834;2024-03-22T02:41:50;100772.97;;;24.27;43.75
75936;BME280;64614;32.062;34.834;2024-03-22T02:44:21;100773.59;;;24.24;43.63
75936;BME280;64614;32.062;34.834;2024-03-22T02:46:47;100770.84;;;24.24;43.72
75936;BME280;64614;32.062;34.834;2024-03-22T02:49:18;100732.88;;;24.00;43.70
75936;BME280;64614;32.062;34.834;2024-03-22T02:51:48;100746.91;;;23.98;43.68
75936;BME280;64614;32.062;34.834;2024-03-22T02:54:14;100792.00;;;24.23;43.64
75936;BME280;64614;32.062;34.834;2024-03-22T02:56:40;100749.97;;;23.97;43.68
75936;BME280;64614;32.062;34.834;2024-03-22T02:59:05;100777.09;;;24.07;43.58
75936;BME280;64614;32.062;34.834;2024-03-22T03:01:34;100778.53;;;24.04;43.64
75936;BME280;64614;32.062;34.834;2024-03-22T03:04:02;100791.47;;;24.13;43.54
75936;BME280;64614;32.062;34.834;2024-03-22T03:06:28;100786.16;;;24.07;43.49
75936;BME280;64614;32.062;34.834;2024-03-22T03:08:54;100808.28;;;24.20;43.67
75936;BME280;64614;32.062;34.834;2024-03-22T03:11:36;100806.34;;;24.20;43.68
75936;BME280;64614;32.062;34.834;2024-03-22T03:14:05;100810.72;;;24.21;43.62
75936;BME280;64614;32.062;34.834;2024-03-22T03:16:33;100794.72;;;24.15;43.65
75936;BME280;64614;32.062;34.834;2024-03-22T03:18:59;100812.63;;;24.21;43.74
75936;BME280;64614;32.062;34.834;2024-03-22T03:21:30;100815.38;;;24.21;43.66
75936;BME280;64614;32.062;34.834;2024-03-22T03:24:02;100781.78;;;23.98;43.61
75936;BME280;64614;32.062;34.834;2024-03-22T03:26:32;100812.31;;;24.14;43.69
75936;BME280;64614;32.062;34.834;2024-03-22T03:29:20;100810.56;;;24.18;43.39
75936;BME280;64614;32.062;34.834;2024-03-22T03:31:48;100823.16;;;24.19;43.40
75936;BME280;64614;32.062;34.834;2024-03-22T03:34:14;100818.28;;;24.16;43.42
75936;BME280;64614;32.062;34.834;2024-03-22T03:36:40;100821.00;;;24.07;43.45
75936;BME280;64614;32.062;34.834;2024-03-22T03:39:06;100815.34;;;24.03;43.22
75936;BME280;64614;32.062;34.834;2024-03-22T03:41:31;100826.34;;;24.21;42.84
75936;BME280;64614;32.062;34.834;2024-03-22T03:43:57;100801.03;;;24.15;42.78
75936;BME280;64614;32.062;34.834;2024-03-22T03:46:23;100811.03;;;24.20;42.82
75936;BME280;64614;32.062;34.834;2024-03-22T03:48:48;100819.44;;;24.23;42.94
75936;BME280;64614;32.062;34.834;2024-03-22T03:51:14;100811.22;;;24.23;43.06
75936;BME280;64614;32.062;34.834;2024-03-22T03:53:40;100826.88;;;24.32;43.06
75936;BME280;64614;32.062;34.834;2024-03-22T03:56:05;100815.09;;;24.31;43.06
75936;BME280;64614;32.062;34.834;2024-03-22T03:58:31;100823.50;;;24.35;43.27
75936;BME280;64614;32.062;34.834;2024-03-22T04:00:57;100824.94;;;24.32;42.84
75936;BME280;64614;32.062;34.834;2024-03-22T04:03:23;100817.53;;;24.33;42.97
75936;BME280;64614;32.062;34.834;2024-03-22T04:05:58;100823.81;;;24.33;43.00
75936;BME280;64614;32.062;34.834;2024-03-22T04:08:27;100816.03;;;24.27;43.15
75936;BME280;64614;32.062;34.834;2024-03-22T04:10:53;100805.06;;;24.27;42.93
75936;BME280;64614;32.062;34.834;2024-03-22T04:13:24;100821.69;;;24.30;43.14
75936;BME280;64614;32.062;34.834;2024-03-22T04:15:51;100817.34;;;24.29;43.28
75936;BME280;64614;32.062;34.834;2024-03-22T04:18:17;100814.91;;;24.28;43.07
75936;BME280;64614;32.062;34.834;2024-03-22T04:20:43;100818.97;;;24.30;43.20
75936;BME280;64614;32.062;34.834;2024-03-22T04:23:11;100816.72;;;24.32;43.23
75936;BME280;64614;32.062;34.834;2024-03-22T04:25:37;100820.56;;;24.31;43.32
75936;BME280;64614;32.062;34.834;2024-03-22T04:28:02;100831.25;;;24.33;43.04
75936;BME280;64614;32.062;34.834;2024-03-22T04:30:28;100822.03;;;24.29;43.31
75936;BME280;64614;32.062;34.834;2024-03-22T04:32:54;100821.06;;;24.33;43.34
75936;BME280;64614;32.062;34.834;2024-03-22T04:35:19;100830.94;;;24.34;43.32
75936;BME280;64614;32.062;34.834;2024-03-22T04:37:45;100819.63;;;24.27;43.29
75936;BME280;64614;32.062;34.834;2024-03-22T04:40:11;100834.78;;;24.33;43.15
75936;BME280;64614;32.062;34.834;2024-03-22T04:42:37;100837.03;;;24.31;43.17
75936;BME280;64614;32.062;34.834;2024-03-22T04:45:03;100827.53;;;24.29;43.27
75936;BME280;64614;32.062;34.834;2024-03-22T04:47:29;100828.31;;;24.29;43.40
75936;BME280;64614;32.062;34.834;2024-03-22T04:49:54;100824.44;;;24.30;43.17
75936;BME280;64614;32.062;34.834;2024-03-22T04:52:20;100829.28;;;24.24;43.27
75936;BME280;64614;32.062;34.834;2024-03-22T04:54:46;100833.50;;;24.31;43.30
75936;BME280;64614;32.062;34.834;2024-03-22T04:57:12;100823.47;;;24.26;43.29
75936;BME280;64614;32.062;34.834;2024-03-22T04:59:38;100840.13;;;24.30;43.22
75936;BME280;64614;32.062;34.834;2024-03-22T05:02:04;100835.75;;;24.29;43.06
75936;BME280;64614;32.062;34.834;2024-03-22T05:04:29;100829.28;;;24.24;43.38
75936;BME280;64614;32.062;34.834;2024-03-22T05:06:55;100844.16;;;24.32;43.29
75936;BME280;64614;32.062;34.834;2024-03-22T05:09:21;100844.16;;;24.32;43.16
75936;BME280;64614;32.062;34.834;2024-03-22T05:11:49;100849.81;;;24.36;43.20
75936;BME280;64614;32.062;34.834;2024-03-22T05:14:17;100832.97;;;24.20;43.21
75936;BME280;64614;32.062;34.834;2024-03-22T05:16:43;100838.31;;;24.25;43.06
75936;BME280;64614;32.062;34.834;2024-03-22T05:19:09;100849.16;;;24.30;43.31
75936;BME280;64614;32.062;34.834;2024-03-22T05:21:35;100848.84;;;24.32;43.21
75936;BME280;64614;32.062;34.834;2024-03-22T05:24:00;100864.66;;;24.35;43.59
75936;BME280;64614;32.062;34.834;2024-03-22T05:26:26;100839.44;;;24.15;43.07
75936;BME280;64614;32.062;34.834;2024-03-22T05:28:52;100841.03;;;24.07;43.08
75936;BME280;64614;32.062;34.834;2024-03-22T05:31:20;100863.66;;;24.22;42.83
75936;BME280;64614;32.062;34.834;2024-03-22T05:33:55;100848.59;;;24.02;42.84
75936;BME280;64614;32.062;34.834;2024-03-22T05:36:21;100838.50;;;23.88;42.41
75936;BME280;64614;32.062;34.834;2024-03-22T05:38:47;100860.81;;;23.96;42.06
75936;BME280;64614;32.062;34.834;2024-03-22T05:41:13;100827.63;;;23.74;41.86
75936;BME280;64614;32.062;34.834;2024-03-22T05:43:38;100858.69;;;23.92;41.77
75936;BME280;64614;32.062;34.834;2024-03-22T05:46:06;100875.97;;;23.93;42.01
75936;BME280;64614;32.062;34.834;2024-03-22T05:48:32;100873.00;;;23.89;41.80
75936;BME280;64614;32.062;34.834;2024-03-22T05:50:58;100826.91;;;23.60;41.39
75936;BME280;64614;32.062;34.834;2024-03-22T05:53:24;100876.41;;;23.86;41.41
75936;BME280;64614;32.062;34.834;2024-03-22T05:55:49;100884.44;;;23.83;41.36
75936;BME280;64614;32.062;34.834;2024-03-22T05:58:15;100866.97;;;23.70;41.17
75936;BME280;64614;32.062;34.834;2024-03-22T06:00:41;100881.66;;;23.74;41.70
75936;BME280;64614;32.062;34.834;2024-03-22T06:03:06;100887.97;;;23.74;41.50
75936;BME280;64614;32.062;34.834;2024-03-22T06:05:33;100872.19;;;23.57;41.37
75936;BME280;64614;32.062;34.834;2024-03-22T06:07:59;100885.47;;;23.64;41.42
75936;BME280;64614;32.062;34.834;2024-03-22T06:10:24;100877.88;;;23.61;41.07
75936;BME280;64614;32.062;34.834;2024-03-22T06:12:50;100860.25;;;23.53;41.13
75936;BME280;64614;32.062;34.834;2024-03-22T06:15:16;100883.94;;;23.81;40.64
75936;BME280;64614;32.062;34.834;2024-03-22T06:17:41;100855.34;;;23.73;39.81
75936;BME280;64614;32.062;34.834;2024-03-22T06:20:08;100868.72;;;23.97;39.51
75936;BME280;64614;32.062;34.834;2024-03-22T06:22:35;100887.97;;;24.06;39.88
75936;BME280;64614;32.062;34.834;2024-03-22T06:25:04;100914.50;;;24.19;40.32
75936;BME280;64614;32.062;34.834;2024-03-22T06:27:30;100912.56;;;24.20;40.25
75936;BME280;64614;32.062;34.834;2024-03-22T06:29:55;100873.72;;;23.95;40.40
75936;BME280;64614;32.062;34.834;2024-03-22T06:32:21;100868.69;;;23.88;40.24
75936;BME280;64614;32.062;34.834;2024-03-22T06:34:47;100887.78;;;24.02;40.21
75936;BME280;64614;32.062;34.834;2024-03-22T06:37:12;100875.47;;;23.91;40.52
75936;BME280;64614;32.062;34.834;2024-03-22T06:39:38;100902.50;;;24.06;40.51
75936;BME280;64614;32.062;34.834;2024-03-22T06:42:04;100913.81;;;24.14;40.30
75936;BME280;64614;32.062;34.834;2024-03-22T06:44:30;100885.94;;;23.89;40.39
75936;BME280;64614;32.062;34.834;2024-03-22T06:46:55;100910.22;;;24.04;40.27
75936;BME280;64614;32.062;34.834;2024-03-22T06:49:21;100920.75;;;24.11;40.30
75936;BME280;64614;32.062;34.834;2024-03-22T06:51:47;100891.41;;;23.89;40.15
75936;BME280;64614;32.062;34.834;2024-03-22T06:54:12;100898.69;;;23.93;40.20
75936;BME280;64614;32.062;34.834;2024-03-22T06:56:38;100918.97;;;24.06;39.58
75936;BME280;64614;32.062;34.834;2024-03-22T06:59:03;100923.44;;;24.02;39.89
75936;BME280;64614;32.062;34.834;2024-03-22T07:01:29;100920.84;;;23.97;39.56
75936;BME280;64614;32.062;34.834;2024-03-22T07:03:55;100918.72;;;23.94;39.59
75936;BME280;64614;32.062;34.834;2024-03-22T07:06:21;100921.75;;;23.92;39.43
75936;BME280;64614;32.062;34.834;2024-03-22T07:08:46;100932.72;;;23.92;39.41
75936;BME280;64614;32.062;34.834;2024-03-22T07:11:12;100919.63;;;23.89;39.71
75936;BME280;64614;32.062;34.834;2024-03-22T07:13:37;100934.16;;;24.13;39.38
75936;BME280;64614;32.062;34.834;2024-03-22T07:16:03;100949.06;;;24.20;39.50
75936;BME280;64614;32.062;34.834;2024-03-22T07:18:29;100919.31;;;24.14;39.31
75936;BME280;64614;32.062;34.834;2024-03-22T07:20:55;100932.94;;;24.28;39.39
75936;BME280;64614;32.062;34.834;2024-03-22T07:23:21;100942.47;;;24.30;39.39
75936;BME280;64614;32.062;34.834;2024-03-22T07:25:46;100938.75;;;24.26;38.93
75936;BME280;64614;32.062;34.834;2024-03-22T07:28:14;100938.31;;;24.33;39.70
75936;BME280;64614;32.062;34.834;2024-03-22T07:30:41;100930.25;;;24.36;39.26
75936;BME280;64614;32.062;34.834;2024-03-22T07:33:06;100924.41;;;24.38;39.29
75936;BME280;64614;32.062;34.834;2024-03-22T07:35:34;100922.78;;;24.37;39.23
75936;BME280;64614;32.062;34.834;2024-03-22T07:38:00;100919.72;;;24.38;39.36
75936;BME280;64614;32.062;34.834;2024-03-22T07:40:26;100925.22;;;24.38;39.27
75936;BME280;64614;32.062;34.834;2024-03-22T07:42:51;100921.69;;;24.47;39.37
75936;BME280;64614;32.062;34.834;2024-03-22T07:45:17;100934.28;;;24.48;39.17
75936;BME280;64614;32.062;34.834;2024-03-22T07:47:42;100923.97;;;24.45;39.23
75936;BME280;64614;32.062;34.834;2024-03-22T07:50:09;100924.13;;;24.48;39.20
75936;BME280;64614;32.062;34.834;2024-03-22T07:52:35;100924.31;;;24.52;39.13
75936;BME280;64614;32.062;34.834;2024-03-22T07:55:00;100920.94;;;24.55;39.11
75936;BME280;64614;32.062;34.834;2024-03-22T07:57:28;100908.63;;;24.44;39.26
75936;BME280;64614;32.062;34.834;2024-03-22T07:59:57;100912.81;;;24.50;39.37
75936;BME280;64614;32.062;34.834;2024-03-22T08:02:22;100939.50;;;24.58;39.21
75936;BME280;64614;32.062;34.834;2024-03-22T08:04:49;100907.97;;;24.47;39.11
75936;BME280;64614;32.062;34.834;2024-03-22T08:07:14;100930.13;;;24.59;39.07
75936;BME280;64614;32.062;34.834;2024-03-22T08:09:40;100934.28;;;24.48;38.93
75936;BME280;64614;32.062;34.834;2024-03-22T08:12:06;100922.22;;;24.58;38.91
75936;BME280;64614;32.062;34.834;2024-03-22T08:14:32;100920.09;;;24.54;38.91
75936;BME280;64614;32.062;34.834;2024-03-22T08:16:59;100918.19;;;24.55;38.88
75936;BME280;64614;32.062;34.834;2024-03-22T08:19:24;100914.44;;;24.51;38.84
75936;BME280;64614;32.062;34.834;2024-03-22T08:21:50;100920.59;;;24.56;38.81
75936;BME280;64614;32.062;34.834;2024-03-22T08:24:18;100919.16;;;24.50;38.81
75936;BME280;64614;32.062;34.834;2024-03-22T08:26:43;100890.31;;;24.30;38.90
75936;BME280;64614;32.062;34.834;2024-03-22T08:29:12;100911.19;;;24.49;38.82
75936;BME280;64614;32.062;34.834;2024-03-22T08:31:40;100904.25;;;24.43;39.34
75936;BME280;64614;32.062;34.834;2024-03-22T08:34:06;100922.84;;;24.46;39.20
75936;BME280;64614;32.062;34.834;2024-03-22T08:36:31;100887.09;;;24.28;38.89
75936;BME280;64614;32.062;34.834;2024-03-22T08:38:57;100907.00;;;24.51;39.08
75936;BME280;64614;32.062;34.834;2024-03-22T08:41:22;100918.00;;;24.51;39.01
75936;BME280;64614;32.062;34.834;2024-03-22T08:43:48;100912.50;;;24.51;39.00
75936;BME280;64614;32.062;34.834;2024-03-22T08:46:14;100918.00;;;24.51;39.08
75936;BME280;64614;32.062;34.834;2024-03-22T08:48:39;100920.09;;;24.54;39.06
75936;BME280;64614;32.062;34.834;2024-03-22T08:51:05;100913.81;;;24.54;39.38
75936;BME280;64614;32.062;34.834;2024-03-22T08:53:31;100917.69;;;24.53;39.26
75936;BME280;64614;32.062;34.834;2024-03-22T08:55:56;100907.66;;;24.48;39.27
75936;BME280;64614;32.062;34.834;2024-03-22T08:58:22;100895.84;;;24.48;39.35
75936;BME280;64614;32.062;34.834;2024-03-22T09:00:47;100890.38;;;24.48;38.88
75936;BME280;64614;32.062;34.834;2024-03-22T09:03:13;100911.53;;;24.56;39.13
75936;BME280;64614;32.062;34.834;2024-03-22T09:05:40;100910.41;;;24.57;39.59
75936;BME280;64614;32.062;34.834;2024-03-22T09:08:06;100896.34;;;24.50;39.02
75936;BME280;64614;32.062;34.834;2024-03-22T09:10:32;100912.53;;;24.60;38.88
75936;BME280;64614;32.062;34.834;2024-03-22T09:12:58;100911.25;;;24.58;39.06
75936;BME280;64614;32.062;34.834;2024-03-22T09:15:23;100904.81;;;24.71;39.17
75936;BME280;64614;32.062;34.834;2024-03-22T09:17:51;100895.31;;;24.68;38.92
75936;BME280;64614;32.062;34.834;2024-03-22T09:20:17;100893.84;;;24.71;38.56
75936;BME280;64614;32.062;34.834;2024-03-22T09:22:43;100894.66;;;24.71;38.76
75936;BME280;64614;32.062;34.834;2024-03-22T09:25:08;100902.75;;;24.77;38.72
75936;BME280;64614;32.062;34.834;2024-03-22T09:27:34;100904.19;;;24.74;38.65
75936;BME280;64614;32.062;34.834;2024-03-22T09:29:59;100895.91;;;24.65;38.80
75936;BME280;64614;32.062;34.834;2024-03-22T09:32:26;100900.00;;;24.77;38.64
75936;BME280;64614;32.062;34.834;2024-03-22T09:34:53;100893.03;;;24.70;38.72
75936;BME280;64614;32.062;34.834;2024-03-22T09:37:19;100908.88;;;24.74;38.71
75936;BME280;64614;32.062;34.834;2024-03-22T09:39:44;100897.88;;;24.74;38.52
75936;BME280;64614;32.062;34.834;2024-03-22T09:42:15;100887.72;;;24.74;38.75
75936;BME280;64614;32.062;34.834;2024-03-22T09:44:48;100896.75;;;24.75;38.86
75936;BME280;64614;32.062;34.834;2024-03-22T09:47:20;100883.84;;;24.75;38.64
75936;BME280;64614;32.062;34.834;2024-03-22T09:49:47;100867.03;;;24.68;38.52
75936;BME280;64614;32.062;34.834;2024-03-22T09:52:15;100882.72;;;24.76;38.56
75936;BME280;64614;32.062;34.834;2024-03-22T09:54:42;100889.34;;;24.75;38.50
75936;BME280;64614;32.062;34.834;2024-03-22T09:57:14;100864.56;;;24.66;38.68
75936;BME280;64614;32.062;34.834;2024-03-22T09:59:43;100874.13;;;24.69;38.58
75936;BME280;64614;32.062;34.834;2024-03-22T10:02:11;100884.63;;;24.76;38.49
75936;BME280;64614;32.062;34.834;2024-03-22T10:04:38;100872.69;;;24.71;38.56
75936;BME280;64614;32.062;34.834;2024-03-22T10:07:04;100866.03;;;24.64;38.64
75936;BME280;64614;32.062;34.834;2024-03-22T10:09:32;100869.41;;;24.61;38.98
75936;BME280;64614;32.062;34.834;2024-03-22T10:11:58;100853.59;;;24.58;38.53
75936;BME280;64614;32.062;34.834;2024-03-22T10:14:24;100855.03;;;24.64;38.65
75936;BME280;64614;32.062;34.834;2024-03-22T10:16:55;100849.09;;;24.70;38.43
75936;BME280;64614;32.062;34.834;2024-03-22T10:19:21;100845.22;;;24.71;38.66
75936;BME280;64614;32.062;34.834;2024-03-22T10:22:00;100842.31;;;24.68;38.67
75936;BME280;64614;32.062;34.834;2024-03-22T10:24:26;100846.47;;;24.65;38.47
75936;BME280;64614;32.062;34.834;2024-03-22T10:26:54;100872.69;;;24.71;38.37
75936;BME280;64614;32.062;34.834;2024-03-22T10:29:20;100845.06;;;24.68;38.56
75936;BME280;64614;32.062;34.834;2024-03-22T10:31:48;100835.88;;;24.73;38.54
75936;BME280;64614;32.062;34.834;2024-03-22T10:34:14;100826.78;;;24.63;38.56
75936;BME280;64614;32.062;34.834;2024-03-22T10:36:41;100846.84;;;24.73;38.58
75936;BME280;64614;32.062;34.834;2024-03-22T10:39:07;100849.59;;;24.73;38.46
75936;BME280;64614;32.062;34.834;2024-03-22T10:41:34;100842.78;;;24.70;38.62
75936;BME280;64614;32.062;34.834;2024-03-22T10:44:00;100843.63;;;24.70;38.52
75936;BME280;64614;32.062;34.834;2024-03-22T10:46:30;100835.88;;;24.73;38.71
75936;BME280;64614;32.062;34.834;2024-03-22T10:48:57;100823.25;;;24.71;38.36
75936;BME280;64614;32.062;34.834;2024-03-22T10:51:25;100836.16;;;24.71;38.26
75936;BME280;64614;32.062;34.834;2024-03-22T10:53:54;100822.59;;;24.75;38.45
75936;BME280;64614;32.062;34.834;2024-03-22T10:56:21;100815.31;;;24.70;38.32
75936;BME280;64614;32.062;34.834;2024-03-22T10:58:47;100802.22;;;24.58;38.41
75936;BME280;64614;32.062;34.834;2024-03-22T11:01:25;100812.28;;;24.71;38.59
75936;BME280;64614;32.062;34.834;2024-03-22T11:04:02;100821.47;;;24.76;38.51
75936;BME280;64614;32.062;34.834;2024-03-22T11:06:31;100811.78;;;24.69;38.55
75936;BME280;64614;32.062;34.834;2024-03-22T11:09:01;100800.75;;;24.61;38.58
75936;BME280;64614;32.062;34.834;2024-03-22T11:11:29;100795.09;;;24.57;38.50
75936;BME280;64614;32.062;34.834;2024-03-22T11:13:57;100804.84;;;24.81;38.75
75936;BME280;64614;32.062;34.834;2024-03-22T11:16:23;100819.53;;;24.67;38.54
75936;BME280;64614;32.062;34.834;2024-03-22T11:18:49;100800.91;;;24.64;38.62
75936;BME280;64614;32.062;34.834;2024-03-22T11:21:15;100815.00;;;24.80;38.48
75936;BME280;64614;32.062;34.834;2024-03-22T11:23:45;100822.47;;;24.80;38.63
75936;BME280;64614;32.062;34.834;2024-03-22T11:26:11;100807.91;;;24.70;38.45
75936;BME280;64614;32.062;34.834;2024-03-22T11:28:38;100810.97;;;24.78;38.26
75936;BME280;64614;32.062;34.834;2024-03-22T11:31:04;100806.78;;;24.80;38.41
75936;BME280;64614;32.062;34.834;2024-03-22T11:33:32;100808.06;;;24.83;38.27
75936;BME280;64614;32.062;34.834;2024-03-22T11:36:01;100797.56;;;24.76;38.46
75936;BME280;64614;32.062;34.834;2024-03-22T11:38:27;100801.44;;;24.75;38.39
75936;BME280;64614;32.062;34.834;2024-03-22T11:40:56;100785.25;;;24.65;38.38
75936;BME280;64614;32.062;34.834;2024-03-22T11:43:22;100799.66;;;24.70;38.26
75936;BME280;64614;32.062;34.834;2024-03-22T11:45:48;100812.59;;;24.70;38.45
75936;BME280;64614;32.062;34.834;2024-03-22T11:48:15;100801.56;;;24.61;38.25
75936;BME280;64614;32.062;34.834;2024-03-22T11:50:42;100804.13;;;24.49;38.97
75936;BME280;64614;32.062;34.834;2024-03-22T11:53:08;100803.19;;;24.45;38.95
75936;BME280;64614;32.062;34.834;2024-03-22T11:55:35;100799.91;;;24.34;39.16
75936;BME280;64614;32.062;34.834;2024-03-22T11:58:01;100800.91;;;24.47;38.72
75936;BME280;64614;32.062;34.834;2024-03-22T12:00:27;100787.50;;;24.45;38.42
75936;BME280;64614;32.062;34.834;2024-03-22T12:02:53;100781.22;;;24.45;38.39
75936;BME280;64614;32.062;34.834;2024-03-22T12:05:20;100778.94;;;24.47;38.76
75936;BME280;64614;32.062;34.834;2024-03-22T12:07:46;100804.13;;;24.49;38.56
75936;BME280;64614;32.062;34.834;2024-03-22T12:10:11;100813.38;;;24.53;38.64
75936;BME280;64614;32.062;34.834;2024-03-22T12:12:37;100786.38;;;24.46;38.66
75936;BME280;64614;32.062;34.834;2024-03-22T12:15:04;100784.59;;;24.41;38.67
75936;BME280;64614;32.062;34.834;2024-03-22T12:17:30;100796.72;;;24.49;38.66
75936;BME280;64614;32.062;34.834;2024-03-22T12:19:55;100789.13;;;24.46;38.67
75936;BME280;64614;32.062;34.834;2024-03-22T12:22:24;100784.44;;;24.47;38.84
75936;BME280;64614;32.062;34.834;2024-03-22T12:24:51;100806.59;;;24.50;38.70
75936;BME280;64614;32.062;34.834;2024-03-22T12:27:17;100801.72;;;24.47;38.51
75936;BME280;64614;32.062;34.834;2024-03-22T12:29:42;100793.63;;;24.42;38.85
75936;BME280;64614;32.062;34.834;2024-03-22T12:32:09;100794.44;;;24.43;38.84
75936;BME280;64614;32.062;34.834;2024-03-22T12:34:35;100791.53;;;24.48;38.79
75936;BME280;64614;32.062;34.834;2024-03-22T12:37:01;100806.09;;;24.48;38.90